createdAt,value
2023-09-15T00:01:04.192Z,100853.20
2023-09-15T00:03:36.878Z,100855.31
2023-09-15T00:06:05.314Z,100855.39
2023-09-15T00:08:35.119Z,100853.26
2023-09-15T00:11:03.127Z,100851.73
2023-09-15T00:13:33.212Z,100853.48
2023-09-15T00:16:01.208Z,100852.52
2023-09-15T00:18:29.737Z,100850.58
2023-09-15T00:20:57.594Z,100851.24
2023-09-15T00:23:25.406Z,100853.73
2023-09-15T00:25:55.895Z,100853.55
2023-09-15T00:28:23.807Z,100854.45
2023-09-15T00:30:51.699Z,100853.92
2023-09-15T00:33:20.650Z,100856.15
2023-09-15T00:35:48.570Z,100860.23
2023-09-15T00:38:16.711Z,100866.15
2023-09-15T00:40:44.467Z,100863.23
2023-09-15T00:43:12.349Z,100860.94
2023-09-15T00:45:40.506Z,100861.46
2023-09-15T00:48:09.065Z,100860.66
2023-09-15T00:50:37.045Z,100860.17
2023-09-15T00:53:11.819Z,100861.34
2023-09-15T00:55:39.940Z,100863.52
2023-09-15T00:58:13.453Z,100861.72
2023-09-15T01:00:43.745Z,100862.97
2023-09-15T01:03:13.610Z,100864.27
2023-09-15T01:05:43.016Z,100867.45
2023-09-15T01:08:11.529Z,100868.92
2023-09-15T01:10:39.851Z,100873.30
2023-09-15T01:13:08.003Z,100871.07
2023-09-15T01:15:47.308Z,100868.90
2023-09-15T01:18:25.150Z,100867.77
2023-09-15T01:21:15.015Z,100864.29
2023-09-15T01:24:00.510Z,100866.80
2023-09-15T01:26:53.578Z,100866.56
2023-09-15T01:29:46.290Z,100868.77
2023-09-15T01:32:17.469Z,100865.16
2023-09-15T01:34:52.931Z,100863.81
2023-09-15T01:37:23.036Z,100868.23
2023-09-15T01:39:54.348Z,100870.25
2023-09-15T01:42:24.664Z,100869.75
2023-09-15T01:44:53.478Z,100870.78
2023-09-15T01:47:23.219Z,100865.05
2023-09-15T01:49:52.781Z,100870.19
2023-09-15T01:52:23.992Z,100868.70
2023-09-15T01:54:54.587Z,100867.14
2023-09-15T01:57:23.316Z,100867.55
2023-09-15T01:59:51.269Z,100872.87
2023-09-15T02:02:19.126Z,100875.81
2023-09-15T02:04:47.104Z,100875.56
2023-09-15T02:07:14.974Z,100879.08
2023-09-15T02:09:42.900Z,100877.45
2023-09-15T02:12:10.979Z,100879.55
2023-09-15T02:14:38.854Z,100881.16
2023-09-15T02:17:07.681Z,100881.40
2023-09-15T02:19:35.957Z,100876.36
2023-09-15T02:22:05.474Z,100874.98
2023-09-15T02:24:33.341Z,100874.39
2023-09-15T02:27:01.662Z,100873.96
2023-09-15T02:29:31.388Z,100876.81
2023-09-15T02:36:18.770Z,100879.84
2023-09-15T02:38:46.836Z,100879.38
2023-09-15T02:41:14.902Z,100882.95
2023-09-15T02:43:43.222Z,100883.61
2023-09-15T02:46:11.347Z,100881.63
2023-09-15T02:48:39.592Z,100881.30
2023-09-15T02:51:08.910Z,100882.58
2023-09-15T02:53:36.858Z,100879.63
2023-09-15T02:56:06.139Z,100884.61
2023-09-15T02:58:37.387Z,100886.67
2023-09-15T03:01:15.916Z,100878.73
2023-09-15T03:03:50.416Z,100879.80
2023-09-15T03:06:18.551Z,100878.52
2023-09-15T03:08:47.119Z,100875.63
2023-09-15T03:11:18.129Z,100877.89
2023-09-15T03:13:46.705Z,100876.20
2023-09-15T03:16:15.133Z,100880.39
2023-09-15T03:18:48.574Z,100879.65
2023-09-15T03:21:20.765Z,100883.47
2023-09-15T03:23:50.327Z,100880.91
2023-09-15T03:26:18.624Z,100881.42
2023-09-15T03:28:49.111Z,100883.70
2023-09-15T03:31:17.868Z,100885.24
2023-09-15T03:33:45.857Z,100887.77
2023-09-15T03:36:13.979Z,100889.36
2023-09-15T03:38:45.067Z,100890.48
2023-09-15T03:41:13.485Z,100891.36
2023-09-15T03:43:41.242Z,100890.54
2023-09-15T03:46:10.125Z,100892.86
2023-09-15T03:48:38.648Z,100888.29
2023-09-15T03:51:06.516Z,100888.61
2023-09-15T03:53:34.383Z,100891.61
2023-09-15T03:56:02.552Z,100891.11
2023-09-15T03:58:30.946Z,100892.63
2023-09-15T04:00:58.817Z,100898.94
2023-09-15T04:03:27.830Z,100893.75
2023-09-15T04:05:55.759Z,100896.95
2023-09-15T04:08:23.537Z,100898.73
2023-09-15T04:10:51.367Z,100899.66
2023-09-15T04:13:19.169Z,100900.08
2023-09-15T04:15:46.953Z,100898.33
2023-09-15T04:18:14.851Z,100895.58
2023-09-15T04:20:46.608Z,100899.62
2023-09-15T04:23:16.109Z,100898.61
2023-09-15T04:25:44.459Z,100897.63
2023-09-15T04:28:14.429Z,100897.34
2023-09-15T04:30:43.807Z,100897.39
2023-09-15T04:33:16.704Z,100897.62
2023-09-15T04:35:45.365Z,100898.99
2023-09-15T04:38:13.253Z,100898.52
2023-09-15T04:40:42.797Z,100902.20
2023-09-15T04:43:10.908Z,100902.55
2023-09-15T04:45:39.744Z,100902.95
2023-09-15T04:48:08.042Z,100906.13
2023-09-15T04:50:39.079Z,100901.70
2023-09-15T04:53:08.500Z,100903.86
2023-09-15T04:55:36.859Z,100904.41
2023-09-15T04:58:05.096Z,100904.83
2023-09-15T05:00:35.982Z,100908.41
2023-09-15T05:03:05.917Z,100909.30
2023-09-15T05:05:33.912Z,100908.31
2023-09-15T05:08:01.843Z,100905.64
2023-09-15T05:10:30.294Z,100909.29
2023-09-15T05:12:58.342Z,100907.02
2023-09-15T05:15:26.778Z,100911.72
2023-09-15T05:17:54.902Z,100911.42
2023-09-15T05:20:22.868Z,100909.92
2023-09-15T05:22:50.680Z,100909.29
2023-09-15T05:25:18.501Z,100909.94
2023-09-15T05:27:46.912Z,100911.19
2023-09-15T05:30:16.537Z,100914.67
2023-09-15T05:32:44.624Z,100918.58
2023-09-15T05:35:12.478Z,100921.91
2023-09-15T05:37:40.356Z,100920.92
2023-09-15T05:40:09.515Z,100922.59
2023-09-15T05:42:37.519Z,100924.07
2023-09-15T05:45:05.926Z,100928.23
2023-09-15T05:47:34.518Z,100928.54
2023-09-15T05:50:05.545Z,100936.48
2023-09-15T05:52:33.713Z,100938.11
2023-09-15T05:55:01.618Z,100938.36
2023-09-15T05:57:29.424Z,100945.66
2023-09-15T05:59:57.379Z,100945.90
2023-09-15T06:02:25.599Z,100943.02
2023-09-15T06:04:54.671Z,100943.59
2023-09-15T06:07:22.801Z,100941.35
2023-09-15T06:09:50.651Z,100944.77
2023-09-15T06:12:18.489Z,100948.42
2023-09-15T06:14:46.712Z,100947.30
2023-09-15T06:17:14.582Z,100949.36
2023-09-15T06:19:42.404Z,100948.77
2023-09-15T06:22:10.179Z,100945.45
2023-09-15T06:24:38.040Z,100945.60
2023-09-15T06:27:05.815Z,100949.17
2023-09-15T06:29:35.005Z,100950.46
2023-09-15T06:32:03.281Z,100948.94
2023-09-15T06:34:31.330Z,100945.96
2023-09-15T06:36:59.160Z,100948.45
2023-09-15T06:39:27.900Z,100949.98
2023-09-15T06:41:55.760Z,100950.39
2023-09-15T06:44:24.296Z,100951.59
2023-09-15T06:46:52.375Z,100944.83
2023-09-15T06:49:23.155Z,100946.27
2023-09-15T06:51:51.275Z,100950.27
2023-09-15T06:54:19.043Z,100946.11
2023-09-15T06:56:46.868Z,100947.80
2023-09-15T06:59:14.921Z,100950.20
2023-09-15T07:01:42.758Z,100950.66
2023-09-15T07:04:14.303Z,100952.67
2023-09-15T07:06:42.298Z,100954.27
2023-09-15T07:09:10.128Z,100954.73
2023-09-15T07:11:38.011Z,100953.80
2023-09-15T07:14:05.882Z,100953.11
2023-09-15T07:16:34.095Z,100950.13
2023-09-15T07:19:01.955Z,100949.77
2023-09-15T07:21:29.777Z,100949.45
2023-09-15T07:24:00.428Z,100949.11
2023-09-15T07:26:29.783Z,100952.64
2023-09-15T07:28:57.764Z,100955.81
2023-09-15T07:31:25.668Z,100960.44
2023-09-15T07:33:53.736Z,100961.98
2023-09-15T07:36:21.551Z,100964.00
2023-09-15T07:38:49.367Z,100963.66
2023-09-15T07:41:17.109Z,100961.45
2023-09-15T07:43:44.980Z,100965.90
2023-09-15T07:46:16.594Z,100967.84
2023-09-15T07:48:44.560Z,100971.79
2023-09-15T07:51:13.298Z,100974.83
2023-09-15T07:53:41.115Z,100972.27
2023-09-15T07:56:08.886Z,100973.69
2023-09-15T07:58:36.702Z,100974.88
2023-09-15T08:01:06.109Z,100973.98
2023-09-15T08:03:33.982Z,100973.15
2023-09-15T08:06:03.110Z,100971.59
2023-09-15T08:08:31.208Z,100970.17
2023-09-15T08:10:58.948Z,100971.45
2023-09-15T08:13:27.162Z,100966.73
2023-09-15T08:15:56.003Z,100972.55
2023-09-15T08:18:24.217Z,100976.85
2023-09-15T08:20:52.007Z,100976.88
2023-09-15T08:23:19.842Z,100976.37
2023-09-15T08:25:47.788Z,100972.42
2023-09-15T08:28:15.921Z,100969.75
2023-09-15T08:30:47.700Z,100973.01
2023-09-15T08:33:15.451Z,100971.02
2023-09-15T08:35:43.323Z,100972.25
2023-09-15T08:38:12.187Z,100970.13
2023-09-15T08:40:48.882Z,100966.27
2023-09-15T08:43:17.504Z,100969.87
2023-09-15T08:45:48.622Z,100962.73
2023-09-15T08:48:23.187Z,100963.36
2023-09-15T08:50:52.586Z,100968.20
2023-09-15T08:53:20.931Z,100967.55
2023-09-15T08:55:48.894Z,100960.20
2023-09-15T08:58:16.956Z,100958.88
2023-09-15T09:00:45.859Z,100960.24
2023-09-15T09:03:16.689Z,100961.36
2023-09-15T09:05:48.171Z,100958.08
2023-09-15T09:08:17.888Z,100958.27
2023-09-15T09:10:50.052Z,100955.02
2023-09-15T09:13:33.619Z,100955.41
2023-09-15T09:16:12.062Z,100962.50
2023-09-15T09:18:39.970Z,100963.05
2023-09-15T09:21:07.750Z,100964.88
2023-09-15T09:23:35.654Z,100959.45
2023-09-15T09:26:12.288Z,100955.61
2023-09-15T09:28:40.841Z,100957.61
2023-09-15T09:31:12.277Z,100958.98
2023-09-15T09:33:43.273Z,100960.53
2023-09-15T09:36:17.912Z,100956.39
2023-09-15T09:38:48.210Z,100952.27
2023-09-15T09:41:27.505Z,100949.95
2023-09-15T09:43:56.801Z,100947.35
2023-09-15T09:46:25.103Z,100949.15
2023-09-15T09:48:53.468Z,100944.65
2023-09-15T09:51:22.341Z,100947.12
2023-09-15T09:53:54.095Z,100948.98
2023-09-15T09:56:23.848Z,100949.31
2023-09-15T09:58:51.607Z,100948.41
2023-09-15T10:01:19.477Z,100947.98
2023-09-15T10:03:47.753Z,100938.23
2023-09-15T10:06:15.920Z,100933.95
2023-09-15T10:08:46.974Z,100932.66
2023-09-15T10:11:15.508Z,100935.93
2023-09-15T10:13:43.614Z,100934.03
2023-09-15T10:20:31.919Z,100923.68
2023-09-15T10:23:00.416Z,100923.14
2023-09-15T10:25:28.282Z,100920.23
2023-09-15T10:27:56.330Z,100916.77
2023-09-15T10:30:24.366Z,100918.14
2023-09-15T10:32:52.293Z,100917.80
2023-09-15T10:35:20.277Z,100917.15
2023-09-15T10:37:48.560Z,100918.86
2023-09-15T10:40:16.355Z,100924.19
2023-09-15T10:42:49.631Z,100919.20
2023-09-15T10:45:18.000Z,100921.82
2023-09-15T10:47:56.743Z,100919.38
2023-09-15T10:50:34.997Z,100919.71
2023-09-15T10:53:10.258Z,100914.23
2023-09-15T10:55:38.772Z,100916.96
2023-09-15T10:58:06.641Z,100915.86
2023-09-15T11:00:34.966Z,100916.02
2023-09-15T11:03:05.175Z,100911.92
2023-09-15T11:05:33.829Z,100908.60
2023-09-15T11:08:02.167Z,100909.23
2023-09-15T11:10:33.168Z,100909.32
2023-09-15T11:13:04.975Z,100908.35
2023-09-15T11:15:34.442Z,100906.35
2023-09-15T11:18:03.347Z,100909.52
2023-09-15T11:20:31.565Z,100908.13
2023-09-15T11:22:59.451Z,100906.77
2023-09-15T11:25:27.236Z,100908.45
2023-09-15T11:27:55.420Z,100901.26
2023-09-15T11:30:27.742Z,100903.95
2023-09-15T11:32:56.357Z,100897.75
2023-09-15T11:35:25.648Z,100900.33
2023-09-15T11:37:54.226Z,100902.19
2023-09-15T11:40:23.217Z,100898.49
2023-09-15T11:43:00.796Z,100899.41
2023-09-15T11:45:30.147Z,100899.81
2023-09-15T11:48:00.279Z,100900.16
2023-09-15T11:50:29.687Z,100900.22
2023-09-15T11:52:57.586Z,100896.70
2023-09-15T11:55:27.003Z,100895.89
2023-09-15T11:58:00.114Z,100891.35
2023-09-15T12:00:31.681Z,100886.08
2023-09-15T12:03:00.729Z,100886.20
2023-09-15T12:05:29.674Z,100884.95
2023-09-15T12:07:58.907Z,100882.25
2023-09-15T12:10:26.800Z,100882.34
2023-09-15T12:12:58.559Z,100882.52
2023-09-15T12:15:27.676Z,100880.35
2023-09-15T12:17:57.410Z,100876.86
2023-09-15T12:20:25.720Z,100878.17
2023-09-15T12:22:53.969Z,100878.56
2023-09-15T12:25:22.362Z,100878.02
2023-09-15T12:27:50.225Z,100877.52
2023-09-15T12:30:19.815Z,100875.89
2023-09-15T12:32:48.940Z,100872.09
2023-09-15T12:35:16.993Z,100871.91
2023-09-15T12:37:46.364Z,100871.87
2023-09-15T12:40:15.807Z,100867.55
2023-09-15T12:42:45.061Z,100860.34
2023-09-15T12:45:15.491Z,100864.67
2023-09-15T12:47:43.490Z,100865.48
2023-09-15T12:50:13.565Z,100859.92
2023-09-15T12:52:41.825Z,100851.84
2023-09-15T12:55:09.911Z,100851.77
2023-09-15T12:57:37.745Z,100850.16
2023-09-15T13:00:07.706Z,100844.96
2023-09-15T13:02:35.978Z,100845.20
2023-09-15T13:05:06.234Z,100842.63
2023-09-15T13:07:37.937Z,100838.02
2023-09-15T13:10:06.649Z,100835.02
2023-09-15T13:12:34.654Z,100828.10
2023-09-15T13:15:04.496Z,100830.14
2023-09-15T13:17:32.320Z,100833.33
2023-09-15T13:20:03.045Z,100827.11
2023-09-15T13:22:30.888Z,100823.32
2023-09-15T13:24:58.647Z,100821.95
2023-09-15T13:27:26.942Z,100820.11
2023-09-15T13:29:58.590Z,100815.63
2023-09-15T13:32:27.749Z,100812.05
2023-09-15T13:34:55.917Z,100812.67
2023-09-15T13:37:24.059Z,100807.60
2023-09-15T13:39:51.907Z,100807.64
2023-09-15T13:42:33.916Z,100807.64
2023-09-15T13:45:03.093Z,100806.63
2023-09-15T13:47:35.287Z,100801.77
2023-09-15T13:50:06.844Z,100798.25
2023-09-15T13:52:34.815Z,100796.48
2023-09-15T13:55:03.405Z,100791.61
2023-09-15T13:57:31.275Z,100789.48
2023-09-15T13:59:59.191Z,100789.89
2023-09-15T14:02:27.622Z,100785.90
2023-09-15T14:04:56.248Z,100783.58
2023-09-15T14:07:25.227Z,100782.69
2023-09-15T14:09:53.051Z,100784.75
2023-09-15T14:12:20.994Z,100786.20
2023-09-15T14:14:48.907Z,100781.23
2023-09-15T14:17:16.683Z,100783.14
2023-09-15T14:19:44.576Z,100783.95
2023-09-15T14:22:12.428Z,100779.27
2023-09-15T14:24:40.452Z,100784.33
2023-09-15T14:27:08.344Z,100781.39
2023-09-15T14:29:36.925Z,100779.29
2023-09-15T14:32:04.961Z,100774.93
2023-09-15T14:34:33.100Z,100770.34
2023-09-15T14:37:01.605Z,100767.13
2023-09-15T14:39:29.717Z,100765.34
2023-09-15T14:41:58.212Z,100767.59
2023-09-15T14:44:26.042Z,100768.30
2023-09-15T14:46:55.347Z,100768.20
2023-09-15T14:49:27.156Z,100763.50
2023-09-15T14:51:55.290Z,100765.64
2023-09-15T14:54:23.149Z,100765.09
2023-09-15T14:56:54.087Z,100767.84
2023-09-15T14:59:22.102Z,100763.30
2023-09-15T15:01:49.945Z,100758.91
2023-09-15T15:04:17.884Z,100754.52
2023-09-15T15:06:45.855Z,100752.19
2023-09-15T15:09:15.646Z,100755.41
2023-09-15T15:11:45.363Z,100747.89
2023-09-15T15:14:13.407Z,100752.55
2023-09-15T15:16:41.286Z,100749.70
2023-09-15T15:19:09.339Z,100744.81
2023-09-15T15:21:37.509Z,100739.10
2023-09-15T15:24:05.336Z,100736.65
2023-09-15T15:26:33.180Z,100734.39
2023-09-15T15:29:01.082Z,100737.58
2023-09-15T15:31:28.997Z,100736.50
2023-09-15T15:33:57.814Z,100735.09
2023-09-15T15:36:27.770Z,100742.30
2023-09-15T15:38:55.606Z,100743.09
2023-09-15T15:41:23.556Z,100742.88
2023-09-15T15:43:51.676Z,100735.29
2023-09-15T15:46:20.979Z,100734.82
2023-09-15T15:48:49.333Z,100733.72
2023-09-15T15:51:17.769Z,100733.41
2023-09-15T15:53:45.687Z,100733.58
2023-09-15T15:56:13.592Z,100729.79
2023-09-15T15:58:41.596Z,100728.10
2023-09-15T16:01:09.754Z,100728.80
2023-09-15T16:03:38.085Z,100727.64
2023-09-15T16:06:06.274Z,100727.45
2023-09-15T16:08:34.134Z,100724.49
2023-09-15T16:11:03.490Z,100727.40
2023-09-15T16:13:35.812Z,100729.77
2023-09-15T16:16:05.589Z,100731.21
2023-09-15T16:18:33.650Z,100733.38
2023-09-15T16:21:01.669Z,100737.04
2023-09-15T16:23:29.552Z,100738.65
2023-09-15T16:25:59.332Z,100739.39
2023-09-15T16:28:29.323Z,100738.56
2023-09-15T16:30:57.262Z,100738.56
2023-09-15T16:33:25.363Z,100739.06
2023-09-15T16:36:06.878Z,100740.34
2023-09-15T16:38:34.815Z,100741.97
2023-09-15T16:41:02.702Z,100739.03
2023-09-15T16:43:32.705Z,100739.09
2023-09-15T16:46:00.744Z,100739.42
2023-09-15T16:48:30.924Z,100735.11
2023-09-15T16:50:59.183Z,100733.73
2023-09-15T16:53:26.982Z,100737.14
2023-09-15T16:55:55.626Z,100733.38
2023-09-15T16:58:23.551Z,100735.92
2023-09-15T17:00:55.073Z,100740.19
2023-09-15T17:03:23.093Z,100740.23
2023-09-15T17:05:51.460Z,100740.75
2023-09-15T17:08:20.057Z,100742.49
2023-09-15T17:10:48.250Z,100748.23
2023-09-15T17:13:16.084Z,100746.42
2023-09-15T17:15:49.072Z,100743.08
2023-09-15T17:18:17.047Z,100745.36
2023-09-15T17:20:44.950Z,100738.06
2023-09-15T17:23:12.715Z,100742.93
2023-09-15T17:25:40.527Z,100746.91
2023-09-15T17:28:08.521Z,100748.55
2023-09-15T17:30:36.357Z,100747.84
2023-09-15T17:33:04.662Z,100746.83
2023-09-15T17:35:32.533Z,100744.42
2023-09-15T17:38:00.324Z,100746.94
2023-09-15T17:40:28.062Z,100752.52
2023-09-15T17:42:55.972Z,100754.77
2023-09-15T17:45:24.973Z,100755.84
2023-09-15T17:47:53.041Z,100757.55
2023-09-15T17:50:21.078Z,100758.36
2023-09-15T17:52:50.756Z,100756.88
2023-09-15T17:55:20.374Z,100756.48
2023-09-15T17:57:49.915Z,100752.73
2023-09-15T18:00:20.547Z,100753.85
2023-09-15T18:02:48.742Z,100752.27
2023-09-15T18:05:17.070Z,100756.62
2023-09-15T18:07:45.140Z,100756.75
2023-09-15T18:10:13.108Z,100756.60
2023-09-15T18:12:40.906Z,100757.09
2023-09-15T18:15:11.574Z,100758.73
2023-09-15T18:17:39.709Z,100761.34
2023-09-15T18:20:10.537Z,100766.59
2023-09-15T18:22:39.935Z,100768.42
2023-09-15T18:25:09.840Z,100768.14
2023-09-15T18:27:39.435Z,100769.35
2023-09-15T18:30:07.931Z,100767.56
2023-09-15T18:32:37.431Z,100765.96
2023-09-15T18:35:06.195Z,100763.77
2023-09-15T18:37:34.459Z,100764.00
2023-09-15T18:40:02.709Z,100765.45
2023-09-15T18:42:30.671Z,100763.19
2023-09-15T18:44:58.402Z,100759.85
2023-09-15T18:47:26.210Z,100759.19
2023-09-15T18:49:54.267Z,100762.96
2023-09-15T18:52:22.119Z,100762.73
2023-09-15T18:54:49.971Z,100764.88
2023-09-15T18:57:17.955Z,100765.50
2023-09-15T18:59:46.496Z,100763.41
2023-09-15T19:02:15.464Z,100764.29
2023-09-15T19:04:43.263Z,100761.96
2023-09-15T19:07:11.169Z,100759.66
2023-09-15T19:09:39.016Z,100757.48
2023-09-15T19:12:08.410Z,100759.77
2023-09-15T19:14:37.713Z,100765.42
2023-09-15T19:17:05.601Z,100766.09
2023-09-15T19:19:33.506Z,100767.07
2023-09-15T19:22:01.378Z,100767.23
2023-09-15T19:24:30.922Z,100767.92
2023-09-15T19:26:58.823Z,100774.72
2023-09-15T19:29:27.819Z,100772.50
2023-09-15T19:31:55.617Z,100776.13
2023-09-15T19:34:23.693Z,100775.94
2023-09-15T19:36:51.656Z,100773.77
2023-09-15T19:39:19.480Z,100775.76
2023-09-15T19:41:47.258Z,100773.94
2023-09-15T19:44:15.581Z,100773.14
2023-09-15T19:46:43.486Z,100774.80
2023-09-15T19:49:11.311Z,100776.40
2023-09-15T19:51:39.444Z,100773.34
2023-09-15T19:54:07.423Z,100771.85
2023-09-15T19:56:35.252Z,100773.89
2023-09-15T19:59:03.055Z,100774.23
2023-09-15T20:01:30.869Z,100766.80
2023-09-15T20:03:58.756Z,100767.23
2023-09-15T20:06:26.633Z,100767.17
2023-09-15T20:08:59.507Z,100766.63
2023-09-15T20:11:27.451Z,100766.92
2023-09-15T20:13:57.662Z,100770.71
2023-09-15T20:16:29.436Z,100769.63
2023-09-15T20:18:57.415Z,100770.92
2023-09-15T20:21:28.517Z,100769.06
2023-09-15T20:23:59.379Z,100769.48
2023-09-15T20:26:27.300Z,100768.73
2023-09-15T20:28:57.122Z,100762.88
2023-09-15T20:31:25.466Z,100760.17
2023-09-15T20:33:53.225Z,100757.41
2023-09-15T20:36:21.493Z,100754.33
2023-09-15T20:38:49.536Z,100751.28
2023-09-15T20:41:17.894Z,100750.64
2023-09-15T20:43:45.654Z,100750.02
2023-09-15T20:46:13.746Z,100747.28
2023-09-15T20:48:44.339Z,100745.66
2023-09-15T20:51:12.463Z,100748.69
2023-09-15T20:53:40.307Z,100747.56
2023-09-15T20:56:08.114Z,100740.72
2023-09-15T20:58:37.679Z,100745.52
2023-09-15T21:01:07.768Z,100743.34
2023-09-15T21:03:37.047Z,100740.91
2023-09-15T21:06:06.382Z,100742.69
2023-09-15T21:08:34.156Z,100743.67
2023-09-15T21:11:02.257Z,100740.70
2023-09-15T21:13:30.228Z,100738.25
2023-09-15T21:15:58.997Z,100736.48
2023-09-15T21:18:26.964Z,100732.73
2023-09-15T21:20:54.911Z,100729.62
2023-09-15T21:23:22.681Z,100728.00
2023-09-15T21:25:50.443Z,100730.20
2023-09-15T21:28:18.590Z,100730.89
2023-09-15T21:30:47.857Z,100731.90
2023-09-15T21:33:16.646Z,100733.71
2023-09-15T21:35:46.717Z,100731.48
2023-09-15T21:38:15.532Z,100734.14
2023-09-15T21:40:43.405Z,100731.56
2023-09-15T21:43:11.237Z,100730.64
2023-09-15T21:45:39.202Z,100729.58
2023-09-15T21:48:07.604Z,100726.67
2023-09-15T21:50:35.480Z,100720.16
2023-09-15T21:53:05.754Z,100721.70
2023-09-15T21:55:34.426Z,100721.98
2023-09-15T21:58:02.293Z,100717.98
2023-09-15T22:00:36.401Z,100718.12
2023-09-15T22:03:04.705Z,100725.43
2023-09-15T22:05:33.261Z,100726.77
2023-09-15T22:08:03.830Z,100728.00
2023-09-15T22:10:32.132Z,100731.27
2023-09-15T22:13:00.010Z,100732.09
2023-09-15T22:15:28.076Z,100733.75
2023-09-15T22:17:55.930Z,100734.19
2023-09-15T22:20:27.837Z,100736.41
2023-09-15T22:22:56.791Z,100733.75
2023-09-15T22:25:28.257Z,100736.92
2023-09-15T22:27:56.177Z,100736.44
2023-09-15T22:30:24.072Z,100733.44
2023-09-15T22:32:52.832Z,100732.46
2023-09-15T22:35:21.760Z,100729.51
2023-09-15T22:37:50.487Z,100724.55
2023-09-15T22:40:18.462Z,100721.75
2023-09-15T22:42:46.253Z,100724.35
2023-09-15T22:45:24.819Z,100726.88
2023-09-15T22:47:59.146Z,100723.12
2023-09-15T22:50:27.447Z,100723.55
2023-09-15T22:52:55.289Z,100723.45
2023-09-15T22:55:24.564Z,100723.74
2023-09-15T22:57:52.435Z,100719.65
2023-09-15T23:00:20.430Z,100722.64
2023-09-15T23:02:50.821Z,100720.58
2023-09-15T23:05:20.830Z,100719.81
2023-09-15T23:07:48.704Z,100718.10
2023-09-15T23:10:17.545Z,100722.80
2023-09-15T23:12:45.551Z,100721.95
2023-09-15T23:15:13.946Z,100722.96
2023-09-15T23:17:41.838Z,100729.90
2023-09-15T23:20:09.840Z,100728.53
2023-09-15T23:22:37.719Z,100726.52
2023-09-15T23:25:06.229Z,100724.94
2023-09-15T23:27:35.325Z,100722.82
2023-09-15T23:30:04.618Z,100722.07
2023-09-15T23:32:33.326Z,100720.35
2023-09-15T23:35:01.907Z,100719.03
2023-09-15T23:37:30.085Z,100719.87
2023-09-15T23:39:58.177Z,100718.14
2023-09-15T23:42:26.155Z,100715.36
2023-09-15T23:44:54.041Z,100716.67
2023-09-15T23:47:21.906Z,100710.25
2023-09-15T23:49:49.799Z,100715.98
2023-09-15T23:52:17.566Z,100715.23
2023-09-15T23:54:45.433Z,100711.22
2023-09-15T23:57:13.332Z,100711.30
2023-09-15T23:59:41.188Z,100707.43
